sensor_id;sensor_type;location;lat;lon;timestamp;P1;durP1;ratioP1;P2;durP2;ratioP2
39518;SDS011;25200;53.394;10.414;2023-05-10T00:02:06;7.05;;;2.95;;
39518;SDS011;25200;53.394;10.414;2023-05-10T00:04:31;9.05;;;3.72;;
39518;SDS011;25200;53.394;10.414;2023-05-10T00:06:57;7.43;;;3.40;;
39518;SDS011;25200;53.394;10.414;2023-05-10T00:09:23;6.93;;;3.17;;
39518;SDS011;25200;53.394;10.414;2023-05-10T00:11:49;8.10;;;2.90;;
39518;SDS011;25200;53.394;10.414;2023-05-10T00:14:14;5.38;;;3.10;;
39518;SDS011;25200;53.394;10.414;2023-05-10T00:16:40;7.28;;;2.80;;
39518;SDS011;25200;53.394;10.414;2023-05-10T00:19:06;6.57;;;2.92;;
39518;SDS011;25200;53.394;10.414;2023-05-10T00:21:32;7.50;;;2.85;;
39518;SDS011;25200;53.394;10.414;2023-05-10T00:23:58;6.18;;;2.90;;
39518;SDS011;25200;53.394;10.414;2023-05-10T00:26:24;6.03;;;2.80;;
39518;SDS011;25200;53.394;10.414;2023-05-10T00:28:50;6.28;;;3.05;;
39518;SDS011;25200;53.394;10.414;2023-05-10T00:31:16;6.05;;;2.78;;
39518;SDS011;25200;53.394;10.414;2023-05-10T00:33:41;5.82;;;3.10;;
39518;SDS011;25200;53.394;10.414;2023-05-10T00:36:07;7.15;;;2.85;;
39518;SDS011;25200;53.394;10.414;2023-05-10T00:38:33;6.20;;;3.17;;
39518;SDS011;25200;53.394;10.414;2023-05-10T00:40:59;4.78;;;2.42;;
39518;SDS011;25200;53.394;10.414;2023-05-10T00:43:25;5.55;;;2.78;;
39518;SDS011;25200;53.394;10.414;2023-05-10T00:45:50;5.78;;;2.85;;
39518;SDS011;25200;53.394;10.414;2023-05-10T00:48:16;7.93;;;2.90;;
39518;SDS011;25200;53.394;10.414;2023-05-10T00:50:42;6.68;;;3.10;;
39518;SDS011;25200;53.394;10.414;2023-05-10T00:53:08;6.18;;;3.17;;
39518;SDS011;25200;53.394;10.414;2023-05-10T00:55:34;7.07;;;2.83;;
39518;SDS011;25200;53.394;10.414;2023-05-10T00:57:59;5.35;;;3.00;;
39518;SDS011;25200;53.394;10.414;2023-05-10T01:00:26;6.60;;;2.83;;
39518;SDS011;25200;53.394;10.414;2023-05-10T01:02:52;6.15;;;3.13;;
39518;SDS011;25200;53.394;10.414;2023-05-10T01:05:18;7.55;;;3.15;;
39518;SDS011;25200;53.394;10.414;2023-05-10T01:07:44;7.72;;;2.92;;
39518;SDS011;25200;53.394;10.414;2023-05-10T01:10:10;6.38;;;2.70;;
39518;SDS011;25200;53.394;10.414;2023-05-10T01:12:36;7.38;;;2.92;;
39518;SDS011;25200;53.394;10.414;2023-05-10T01:15:06;6.90;;;3.05;;
39518;SDS011;25200;53.394;10.414;2023-05-10T01:17:34;5.72;;;2.88;;
39518;SDS011;25200;53.394;10.414;2023-05-10T01:20:02;5.45;;;2.83;;
39518;SDS011;25200;53.394;10.414;2023-05-10T01:28:14;7.20;;;3.40;;
39518;SDS011;25200;53.394;10.414;2023-05-10T01:30:52;5.88;;;3.08;;
39518;SDS011;25200;53.394;10.414;2023-05-10T01:38:57;6.53;;;3.10;;
39518;SDS011;25200;53.394;10.414;2023-05-10T01:41:39;6.90;;;2.95;;
39518;SDS011;25200;53.394;10.414;2023-05-10T01:47:09;5.72;;;2.85;;
39518;SDS011;25200;53.394;10.414;2023-05-10T01:49:47;8.40;;;2.90;;
39518;SDS011;25200;53.394;10.414;2023-05-10T01:52:18;5.72;;;2.97;;
39518;SDS011;25200;53.394;10.414;2023-05-10T01:55:04;8.15;;;3.30;;
39518;SDS011;25200;53.394;10.414;2023-05-10T01:57:33;6.30;;;3.20;;
39518;SDS011;25200;53.394;10.414;2023-05-10T02:00:01;5.28;;;2.83;;
39518;SDS011;25200;53.394;10.414;2023-05-10T02:02:29;5.78;;;3.00;;
39518;SDS011;25200;53.394;10.414;2023-05-10T02:04:58;5.45;;;2.63;;
39518;SDS011;25200;53.394;10.414;2023-05-10T02:07:24;7.05;;;3.20;;
39518;SDS011;25200;53.394;10.414;2023-05-10T02:09:53;6.38;;;2.80;;
39518;SDS011;25200;53.394;10.414;2023-05-10T02:12:20;7.90;;;3.05;;
39518;SDS011;25200;53.394;10.414;2023-05-10T02:14:48;7.43;;;2.80;;
39518;SDS011;25200;53.394;10.414;2023-05-10T02:17:15;6.95;;;3.20;;
39518;SDS011;25200;53.394;10.414;2023-05-10T02:19:42;5.72;;;3.13;;
39518;SDS011;25200;53.394;10.414;2023-05-10T02:22:10;7.72;;;3.20;;
39518;SDS011;25200;53.394;10.414;2023-05-10T02:24:37;6.85;;;3.10;;
39518;SDS011;25200;53.394;10.414;2023-05-10T02:27:04;6.05;;;3.28;;
39518;SDS011;25200;53.394;10.414;2023-05-10T02:29:31;5.72;;;3.05;;
39518;SDS011;25200;53.394;10.414;2023-05-10T02:31:58;6.57;;;2.90;;
39518;SDS011;25200;53.394;10.414;2023-05-10T02:34:27;6.63;;;3.05;;
39518;SDS011;25200;53.394;10.414;2023-05-10T02:36:55;7.68;;;2.95;;
39518;SDS011;25200;53.394;10.414;2023-05-10T02:39:21;6.57;;;3.10;;
39518;SDS011;25200;53.394;10.414;2023-05-10T02:41:48;5.57;;;3.30;;
39518;SDS011;25200;53.394;10.414;2023-05-10T02:44:15;6.53;;;2.88;;
39518;SDS011;25200;53.394;10.414;2023-05-10T02:46:44;5.35;;;2.75;;
39518;SDS011;25200;53.394;10.414;2023-05-10T02:49:10;7.57;;;3.05;;
39518;SDS011;25200;53.394;10.414;2023-05-10T02:51:37;8.45;;;3.15;;
39518;SDS011;25200;53.394;10.414;2023-05-10T02:54:12;7.85;;;3.30;;
39518;SDS011;25200;53.394;10.414;2023-05-10T02:59:13;6.40;;;2.92;;
39518;SDS011;25200;53.394;10.414;2023-05-10T03:01:38;6.85;;;3.42;;
39518;SDS011;25200;53.394;10.414;2023-05-10T03:04:04;5.50;;;3.20;;
39518;SDS011;25200;53.394;10.414;2023-05-10T03:06:31;6.45;;;3.20;;
39518;SDS011;25200;53.394;10.414;2023-05-10T03:08:56;7.15;;;3.20;;
39518;SDS011;25200;53.394;10.414;2023-05-10T03:11:39;7.95;;;3.40;;
39518;SDS011;25200;53.394;10.414;2023-05-10T03:16:55;5.30;;;2.67;;
39518;SDS011;25200;53.394;10.414;2023-05-10T03:21:51;6.28;;;2.95;;
39518;SDS011;25200;53.394;10.414;2023-05-10T03:24:20;6.03;;;3.20;;
39518;SDS011;25200;53.394;10.414;2023-05-10T03:26:48;6.53;;;3.38;;
39518;SDS011;25200;53.394;10.414;2023-05-10T03:29:15;6.68;;;3.20;;
39518;SDS011;25200;53.394;10.414;2023-05-10T03:31:42;5.38;;;3.17;;
39518;SDS011;25200;53.394;10.414;2023-05-10T03:34:07;6.47;;;3.22;;
39518;SDS011;25200;53.394;10.414;2023-05-10T03:36:33;6.60;;;3.47;;
39518;SDS011;25200;53.394;10.414;2023-05-10T03:38:59;5.65;;;2.88;;
39518;SDS011;25200;53.394;10.414;2023-05-10T03:41:24;5.68;;;3.30;;
39518;SDS011;25200;53.394;10.414;2023-05-10T03:43:51;6.40;;;2.97;;
39518;SDS011;25200;53.394;10.414;2023-05-10T03:46:16;5.85;;;3.05;;
39518;SDS011;25200;53.394;10.414;2023-05-10T03:48:42;6.10;;;3.08;;
39518;SDS011;25200;53.394;10.414;2023-05-10T03:51:08;6.20;;;3.00;;
39518;SDS011;25200;53.394;10.414;2023-05-10T03:53:33;6.15;;;3.33;;
39518;SDS011;25200;53.394;10.414;2023-05-10T03:55:59;5.97;;;2.90;;
39518;SDS011;25200;53.394;10.414;2023-05-10T03:58:25;8.07;;;3.40;;
39518;SDS011;25200;53.394;10.414;2023-05-10T04:00:51;6.75;;;3.30;;
39518;SDS011;25200;53.394;10.414;2023-05-10T04:03:17;7.22;;;3.17;;
39518;SDS011;25200;53.394;10.414;2023-05-10T04:05:42;6.18;;;3.22;;
39518;SDS011;25200;53.394;10.414;2023-05-10T04:08:08;5.38;;;2.95;;
39518;SDS011;25200;53.394;10.414;2023-05-10T04:10:34;6.55;;;3.33;;
39518;SDS011;25200;53.394;10.414;2023-05-10T04:12:59;6.72;;;3.30;;
39518;SDS011;25200;53.394;10.414;2023-05-10T04:15:25;7.18;;;3.08;;
39518;SDS011;25200;53.394;10.414;2023-05-10T04:17:51;8.63;;;3.13;;
39518;SDS011;25200;53.394;10.414;2023-05-10T04:20:16;6.75;;;2.80;;
39518;SDS011;25200;53.394;10.414;2023-05-10T04:22:42;6.45;;;3.40;;
39518;SDS011;25200;53.394;10.414;2023-05-10T04:25:08;10.52;;;3.17;;
39518;SDS011;25200;53.394;10.414;2023-05-10T04:27:34;7.32;;;3.20;;
39518;SDS011;25200;53.394;10.414;2023-05-10T04:30:00;7.13;;;3.40;;
39518;SDS011;25200;53.394;10.414;2023-05-10T04:32:26;8.18;;;3.47;;
39518;SDS011;25200;53.394;10.414;2023-05-10T04:34:51;7.22;;;3.33;;
39518;SDS011;25200;53.394;10.414;2023-05-10T04:37:18;5.47;;;3.40;;
39518;SDS011;25200;53.394;10.414;2023-05-10T04:39:43;8.10;;;3.42;;
39518;SDS011;25200;53.394;10.414;2023-05-10T04:42:09;8.63;;;3.17;;
39518;SDS011;25200;53.394;10.414;2023-05-10T04:44:35;7.53;;;3.42;;
39518;SDS011;25200;53.394;10.414;2023-05-10T04:47:01;7.43;;;3.40;;
39518;SDS011;25200;53.394;10.414;2023-05-10T04:49:27;6.45;;;3.00;;
39518;SDS011;25200;53.394;10.414;2023-05-10T04:51:54;6.90;;;3.20;;
39518;SDS011;25200;53.394;10.414;2023-05-10T04:54:20;9.63;;;3.22;;
39518;SDS011;25200;53.394;10.414;2023-05-10T04:56:46;7.28;;;3.20;;
39518;SDS011;25200;53.394;10.414;2023-05-10T04:59:11;6.70;;;3.10;;
39518;SDS011;25200;53.394;10.414;2023-05-10T05:01:37;9.07;;;3.35;;
39518;SDS011;25200;53.394;10.414;2023-05-10T05:04:02;5.75;;;3.25;;
39518;SDS011;25200;53.394;10.414;2023-05-10T05:06:28;6.80;;;3.10;;
39518;SDS011;25200;53.394;10.414;2023-05-10T05:08:54;5.40;;;3.08;;
39518;SDS011;25200;53.394;10.414;2023-05-10T05:11:19;6.32;;;3.28;;
39518;SDS011;25200;53.394;10.414;2023-05-10T05:13:46;9.65;;;3.30;;
39518;SDS011;25200;53.394;10.414;2023-05-10T05:16:11;7.22;;;3.50;;
39518;SDS011;25200;53.394;10.414;2023-05-10T05:18:37;7.55;;;3.97;;
39518;SDS011;25200;53.394;10.414;2023-05-10T05:21:03;5.32;;;3.00;;
39518;SDS011;25200;53.394;10.414;2023-05-10T05:26:03;9.88;;;3.17;;
39518;SDS011;25200;53.394;10.414;2023-05-10T05:28:29;6.55;;;3.33;;
39518;SDS011;25200;53.394;10.414;2023-05-10T05:30:57;5.70;;;3.25;;
39518;SDS011;25200;53.394;10.414;2023-05-10T05:33:23;7.50;;;3.80;;
39518;SDS011;25200;53.394;10.414;2023-05-10T05:35:48;8.73;;;3.97;;
39518;SDS011;25200;53.394;10.414;2023-05-10T05:38:15;7.07;;;3.08;;
39518;SDS011;25200;53.394;10.414;2023-05-10T05:40:42;7.75;;;3.13;;
39518;SDS011;25200;53.394;10.414;2023-05-10T05:43:08;6.45;;;3.45;;
39518;SDS011;25200;53.394;10.414;2023-05-10T05:45:33;6.82;;;3.40;;
39518;SDS011;25200;53.394;10.414;2023-05-10T05:47:59;6.13;;;3.60;;
39518;SDS011;25200;53.394;10.414;2023-05-10T05:50:25;6.55;;;3.50;;
39518;SDS011;25200;53.394;10.414;2023-05-10T05:52:50;6.20;;;3.35;;
39518;SDS011;25200;53.394;10.414;2023-05-10T05:55:16;5.45;;;3.28;;
39518;SDS011;25200;53.394;10.414;2023-05-10T05:57:42;7.38;;;3.53;;
39518;SDS011;25200;53.394;10.414;2023-05-10T06:00:07;6.40;;;3.25;;
39518;SDS011;25200;53.394;10.414;2023-05-10T06:02:33;6.82;;;3.38;;
39518;SDS011;25200;53.394;10.414;2023-05-10T06:04:59;6.90;;;3.40;;
39518;SDS011;25200;53.394;10.414;2023-05-10T06:07:24;6.25;;;3.42;;
39518;SDS011;25200;53.394;10.414;2023-05-10T06:09:50;6.57;;;3.58;;
39518;SDS011;25200;53.394;10.414;2023-05-10T06:12:16;7.05;;;3.38;;
39518;SDS011;25200;53.394;10.414;2023-05-10T06:14:41;7.28;;;3.15;;
39518;SDS011;25200;53.394;10.414;2023-05-10T06:17:07;8.50;;;3.28;;
39518;SDS011;25200;53.394;10.414;2023-05-10T06:19:32;8.35;;;3.50;;
39518;SDS011;25200;53.394;10.414;2023-05-10T06:21:58;6.43;;;3.30;;
39518;SDS011;25200;53.394;10.414;2023-05-10T06:24:24;7.85;;;3.10;;
39518;SDS011;25200;53.394;10.414;2023-05-10T06:26:49;7.63;;;3.40;;
39518;SDS011;25200;53.394;10.414;2023-05-10T06:29:15;6.53;;;3.15;;
39518;SDS011;25200;53.394;10.414;2023-05-10T06:31:41;7.07;;;3.85;;
39518;SDS011;25200;53.394;10.414;2023-05-10T06:34:06;6.70;;;3.20;;
39518;SDS011;25200;53.394;10.414;2023-05-10T06:36:33;6.25;;;3.72;;
39518;SDS011;25200;53.394;10.414;2023-05-10T06:38:59;9.55;;;3.72;;
39518;SDS011;25200;53.394;10.414;2023-05-10T06:41:24;6.95;;;3.30;;
39518;SDS011;25200;53.394;10.414;2023-05-10T06:43:50;5.78;;;3.10;;
39518;SDS011;25200;53.394;10.414;2023-05-10T06:46:15;6.32;;;3.10;;
39518;SDS011;25200;53.394;10.414;2023-05-10T06:48:41;6.38;;;3.55;;
39518;SDS011;25200;53.394;10.414;2023-05-10T06:51:06;5.88;;;3.15;;
39518;SDS011;25200;53.394;10.414;2023-05-10T06:53:32;5.70;;;3.08;;
39518;SDS011;25200;53.394;10.414;2023-05-10T06:56:00;5.65;;;3.00;;
39518;SDS011;25200;53.394;10.414;2023-05-10T06:58:28;7.70;;;3.08;;
39518;SDS011;25200;53.394;10.414;2023-05-10T07:00:53;6.47;;;3.40;;
39518;SDS011;25200;53.394;10.414;2023-05-10T07:03:19;6.93;;;3.42;;
39518;SDS011;25200;53.394;10.414;2023-05-10T07:05:44;10.40;;;3.10;;
39518;SDS011;25200;53.394;10.414;2023-05-10T07:08:10;5.63;;;3.13;;
39518;SDS011;25200;53.394;10.414;2023-05-10T07:10:35;8.48;;;3.15;;
39518;SDS011;25200;53.394;10.414;2023-05-10T07:13:01;7.35;;;3.10;;
39518;SDS011;25200;53.394;10.414;2023-05-10T07:15:27;7.20;;;3.13;;
39518;SDS011;25200;53.394;10.414;2023-05-10T07:17:53;5.32;;;2.90;;
39518;SDS011;25200;53.394;10.414;2023-05-10T07:20:19;5.80;;;3.28;;
39518;SDS011;25200;53.394;10.414;2023-05-10T07:22:44;8.25;;;3.20;;
39518;SDS011;25200;53.394;10.414;2023-05-10T07:25:10;6.53;;;3.13;;
39518;SDS011;25200;53.394;10.414;2023-05-10T07:27:35;6.78;;;3.33;;
39518;SDS011;25200;53.394;10.414;2023-05-10T07:30:01;7.38;;;3.10;;
39518;SDS011;25200;53.394;10.414;2023-05-10T07:32:27;7.03;;;3.10;;
39518;SDS011;25200;53.394;10.414;2023-05-10T07:34:53;5.40;;;2.92;;
39518;SDS011;25200;53.394;10.414;2023-05-10T07:37:18;6.18;;;3.05;;
39518;SDS011;25200;53.394;10.414;2023-05-10T07:39:44;5.53;;;3.45;;
39518;SDS011;25200;53.394;10.414;2023-05-10T07:42:09;5.80;;;2.90;;
39518;SDS011;25200;53.394;10.414;2023-05-10T07:44:35;6.57;;;3.08;;
39518;SDS011;25200;53.394;10.414;2023-05-10T07:47:01;8.45;;;3.13;;
39518;SDS011;25200;53.394;10.414;2023-05-10T07:49:26;6.30;;;2.88;;
39518;SDS011;25200;53.394;10.414;2023-05-10T07:51:52;4.75;;;2.90;;
39518;SDS011;25200;53.394;10.414;2023-05-10T07:54:17;5.97;;;3.25;;
39518;SDS011;25200;53.394;10.414;2023-05-10T07:56:43;7.05;;;3.22;;
39518;SDS011;25200;53.394;10.414;2023-05-10T07:59:14;7.10;;;3.05;;
39518;SDS011;25200;53.394;10.414;2023-05-10T08:01:41;5.45;;;3.05;;
39518;SDS011;25200;53.394;10.414;2023-05-10T08:04:07;6.63;;;3.25;;
39518;SDS011;25200;53.394;10.414;2023-05-10T08:06:33;6.57;;;3.38;;
39518;SDS011;25200;53.394;10.414;2023-05-10T08:08:59;5.15;;;3.15;;
39518;SDS011;25200;53.394;10.414;2023-05-10T08:11:25;5.85;;;3.17;;
39518;SDS011;25200;53.394;10.414;2023-05-10T08:13:52;6.15;;;3.13;;
39518;SDS011;25200;53.394;10.414;2023-05-10T08:16:18;5.63;;;3.25;;
39518;SDS011;25200;53.394;10.414;2023-05-10T08:18:45;7.80;;;3.22;;
39518;SDS011;25200;53.394;10.414;2023-05-10T08:21:15;4.82;;;2.85;;
39518;SDS011;25200;53.394;10.414;2023-05-10T08:23:41;5.85;;;3.05;;
39518;SDS011;25200;53.394;10.414;2023-05-10T08:26:08;7.78;;;3.25;;
39518;SDS011;25200;53.394;10.414;2023-05-10T08:28:34;5.60;;;3.10;;
39518;SDS011;25200;53.394;10.414;2023-05-10T08:30:59;8.70;;;3.25;;
39518;SDS011;25200;53.394;10.414;2023-05-10T08:33:25;6.65;;;3.05;;
39518;SDS011;25200;53.394;10.414;2023-05-10T08:35:50;5.70;;;2.75;;
39518;SDS011;25200;53.394;10.414;2023-05-10T08:38:17;7.28;;;3.10;;
39518;SDS011;25200;53.394;10.414;2023-05-10T08:40:43;8.30;;;3.25;;
39518;SDS011;25200;53.394;10.414;2023-05-10T08:43:10;6.22;;;3.17;;
39518;SDS011;25200;53.394;10.414;2023-05-10T08:45:37;7.40;;;2.95;;
39518;SDS011;25200;53.394;10.414;2023-05-10T08:48:05;5.60;;;3.10;;
39518;SDS011;25200;53.394;10.414;2023-05-10T08:50:33;5.53;;;2.90;;
39518;SDS011;25200;53.394;10.414;2023-05-10T08:53:03;9.05;;;3.20;;
39518;SDS011;25200;53.394;10.414;2023-05-10T08:55:31;5.75;;;3.10;;
39518;SDS011;25200;53.394;10.414;2023-05-10T08:57:59;5.18;;;3.03;;
39518;SDS011;25200;53.394;10.414;2023-05-10T09:00:25;8.25;;;3.35;;
39518;SDS011;25200;53.394;10.414;2023-05-10T09:02:51;6.95;;;3.08;;
39518;SDS011;25200;53.394;10.414;2023-05-10T09:05:17;6.07;;;3.28;;
39518;SDS011;25200;53.394;10.414;2023-05-10T09:07:43;7.35;;;3.20;;
39518;SDS011;25200;53.394;10.414;2023-05-10T09:10:08;9.25;;;3.13;;
39518;SDS011;25200;53.394;10.414;2023-05-10T09:12:35;7.45;;;3.30;;
39518;SDS011;25200;53.394;10.414;2023-05-10T09:15:01;6.30;;;3.33;;
39518;SDS011;25200;53.394;10.414;2023-05-10T09:17:28;5.90;;;3.22;;
39518;SDS011;25200;53.394;10.414;2023-05-10T09:20:01;5.45;;;3.15;;
39518;SDS011;25200;53.394;10.414;2023-05-10T09:22:29;8.10;;;3.20;;
39518;SDS011;25200;53.394;10.414;2023-05-10T09:25:12;6.82;;;3.15;;
39518;SDS011;25200;53.394;10.414;2023-05-10T09:27:43;8.80;;;3.30;;
39518;SDS011;25200;53.394;10.414;2023-05-10T09:30:10;6.68;;;3.15;;
39518;SDS011;25200;53.394;10.414;2023-05-10T09:32:41;6.97;;;3.47;;
39518;SDS011;25200;53.394;10.414;2023-05-10T09:35:15;8.43;;;3.10;;
39518;SDS011;25200;53.394;10.414;2023-05-10T09:37:43;7.65;;;3.20;;
39518;SDS011;25200;53.394;10.414;2023-05-10T09:40:16;8.18;;;3.20;;
39518;SDS011;25200;53.394;10.414;2023-05-10T09:42:43;7.50;;;3.22;;
39518;SDS011;25200;53.394;10.414;2023-05-10T09:45:19;7.40;;;3.15;;
39518;SDS011;25200;53.394;10.414;2023-05-10T09:47:46;6.72;;;3.50;;
39518;SDS011;25200;53.394;10.414;2023-05-10T09:50:12;6.85;;;3.60;;
39518;SDS011;25200;53.394;10.414;2023-05-10T09:58:01;5.38;;;3.22;;
39518;SDS011;25200;53.394;10.414;2023-05-10T10:00:27;6.32;;;3.25;;
39518;SDS011;25200;53.394;10.414;2023-05-10T10:02:54;6.40;;;3.50;;
39518;SDS011;25200;53.394;10.414;2023-05-10T10:05:21;10.48;;;3.80;;
39518;SDS011;25200;53.394;10.414;2023-05-10T10:07:56;6.82;;;3.33;;
39518;SDS011;25200;53.394;10.414;2023-05-10T10:10:26;5.53;;;3.42;;
39518;SDS011;25200;53.394;10.414;2023-05-10T10:12:53;5.20;;;3.38;;
39518;SDS011;25200;53.394;10.414;2023-05-10T10:15:22;8.35;;;4.43;;
39518;SDS011;25200;53.394;10.414;2023-05-10T10:17:49;7.43;;;4.00;;
39518;SDS011;25200;53.394;10.414;2023-05-10T10:20:15;6.88;;;4.78;;
39518;SDS011;25200;53.394;10.414;2023-05-10T10:22:42;8.27;;;4.20;;
39518;SDS011;25200;53.394;10.414;2023-05-10T10:25:11;7.18;;;4.30;;
39518;SDS011;25200;53.394;10.414;2023-05-10T10:35:55;8.10;;;4.25;;
39518;SDS011;25200;53.394;10.414;2023-05-10T10:38:25;7.60;;;4.30;;
39518;SDS011;25200;53.394;10.414;2023-05-10T10:41:07;8.25;;;4.07;;
39518;SDS011;25200;53.394;10.414;2023-05-10T10:44:21;6.70;;;3.90;;
39518;SDS011;25200;53.394;10.414;2023-05-10T10:46:59;9.32;;;4.30;;
39518;SDS011;25200;53.394;10.414;2023-05-10T10:49:26;10.48;;;4.50;;
39518;SDS011;25200;53.394;10.414;2023-05-10T10:55:01;8.07;;;4.80;;
39518;SDS011;25200;53.394;10.414;2023-05-10T10:57:28;6.90;;;4.50;;
39518;SDS011;25200;53.394;10.414;2023-05-10T11:02:45;10.20;;;5.00;;
39518;SDS011;25200;53.394;10.414;2023-05-10T11:05:27;9.38;;;5.40;;
39518;SDS011;25200;53.394;10.414;2023-05-10T11:10:34;9.10;;;5.55;;
39518;SDS011;25200;53.394;10.414;2023-05-10T11:13:00;10.82;;;5.75;;
39518;SDS011;25200;53.394;10.414;2023-05-10T11:15:37;7.93;;;4.78;;
39518;SDS011;25200;53.394;10.414;2023-05-10T11:20:51;9.30;;;5.40;;
39518;SDS011;25200;53.394;10.414;2023-05-10T11:23:17;8.02;;;4.50;;
39518;SDS011;25200;53.394;10.414;2023-05-10T11:25:44;9.82;;;4.63;;
39518;SDS011;25200;53.394;10.414;2023-05-10T11:28:11;8.70;;;4.65;;
39518;SDS011;25200;53.394;10.414;2023-05-10T11:30:40;8.98;;;5.50;;
39518;SDS011;25200;53.394;10.414;2023-05-10T11:33:08;7.38;;;4.78;;
39518;SDS011;25200;53.394;10.414;2023-05-10T11:35:38;9.63;;;5.00;;
39518;SDS011;25200;53.394;10.414;2023-05-10T11:38:05;10.30;;;5.03;;
39518;SDS011;25200;53.394;10.414;2023-05-10T11:40:35;7.45;;;5.10;;
39518;SDS011;25200;53.394;10.414;2023-05-10T11:43:02;8.32;;;5.00;;
39518;SDS011;25200;53.394;10.414;2023-05-10T11:45:31;8.68;;;5.50;;
39518;SDS011;25200;53.394;10.414;2023-05-10T11:47:57;9.70;;;5.55;;
39518;SDS011;25200;53.394;10.414;2023-05-10T11:50:23;7.68;;;5.35;;
39518;SDS011;25200;53.394;10.414;2023-05-10T11:52:51;9.02;;;5.50;;
39518;SDS011;25200;53.394;10.414;2023-05-10T11:55:19;10.50;;;5.28;;
39518;SDS011;25200;53.394;10.414;2023-05-10T11:57:46;11.25;;;5.40;;
39518;SDS011;25200;53.394;10.414;2023-05-10T12:00:15;8.20;;;5.18;;
39518;SDS011;25200;53.394;10.414;2023-05-10T12:02:41;8.30;;;5.55;;
39518;SDS011;25200;53.394;10.414;2023-05-10T12:05:06;10.05;;;5.90;;
39518;SDS011;25200;53.394;10.414;2023-05-10T12:07:33;7.72;;;5.13;;
39518;SDS011;25200;53.394;10.414;2023-05-10T12:10:05;8.60;;;5.30;;
39518;SDS011;25200;53.394;10.414;2023-05-10T12:12:41;9.85;;;5.70;;
39518;SDS011;25200;53.394;10.414;2023-05-10T12:15:11;8.50;;;5.75;;
39518;SDS011;25200;53.394;10.414;2023-05-10T12:17:40;8.38;;;5.22;;
39518;SDS011;25200;53.394;10.414;2023-05-10T12:22:44;8.32;;;5.50;;
39518;SDS011;25200;53.394;10.414;2023-05-10T12:25:18;7.63;;;5.22;;
39518;SDS011;25200;53.394;10.414;2023-05-10T12:27:48;9.13;;;5.95;;
39518;SDS011;25200;53.394;10.414;2023-05-10T12:30:28;8.63;;;5.93;;
39518;SDS011;25200;53.394;10.414;2023-05-10T12:32:59;10.32;;;6.10;;
39518;SDS011;25200;53.394;10.414;2023-05-10T12:35:29;8.82;;;5.63;;
39518;SDS011;25200;53.394;10.414;2023-05-10T12:37:56;9.98;;;6.40;;
39518;SDS011;25200;53.394;10.414;2023-05-10T12:40:21;8.80;;;6.55;;
39518;SDS011;25200;53.394;10.414;2023-05-10T12:42:47;10.55;;;6.20;;
39518;SDS011;25200;53.394;10.414;2023-05-10T12:45:13;9.80;;;5.97;;
39518;SDS011;25200;53.394;10.414;2023-05-10T12:47:39;8.90;;;6.50;;
39518;SDS011;25200;53.394;10.414;2023-05-10T12:50:05;9.80;;;6.63;;
39518;SDS011;25200;53.394;10.414;2023-05-10T12:52:31;10.02;;;6.50;;
39518;SDS011;25200;53.394;10.414;2023-05-10T12:54:58;8.98;;;5.93;;
39518;SDS011;25200;53.394;10.414;2023-05-10T12:57:24;9.52;;;6.68;;
39518;SDS011;25200;53.394;10.414;2023-05-10T12:59:50;8.70;;;6.00;;
39518;SDS011;25200;53.394;10.414;2023-05-10T13:02:16;8.75;;;5.63;;
39518;SDS011;25200;53.394;10.414;2023-05-10T13:04:46;8.18;;;5.50;;
39518;SDS011;25200;53.394;10.414;2023-05-10T13:07:12;9.23;;;5.90;;
39518;SDS011;25200;53.394;10.414;2023-05-10T13:09:37;9.73;;;6.28;;
39518;SDS011;25200;53.394;10.414;2023-05-10T13:12:03;8.57;;;5.65;;
39518;SDS011;25200;53.394;10.414;2023-05-10T13:14:29;9.52;;;5.72;;
39518;SDS011;25200;53.394;10.414;2023-05-10T13:16:55;8.80;;;5.55;;
39518;SDS011;25200;53.394;10.414;2023-05-10T13:19:20;8.70;;;4.82;;
39518;SDS011;25200;53.394;10.414;2023-05-10T13:21:46;8.98;;;5.53;;
39518;SDS011;25200;53.394;10.414;2023-05-10T13:24:12;9.90;;;6.22;;
39518;SDS011;25200;53.394;10.414;2023-05-10T13:26:41;7.65;;;5.05;;
39518;SDS011;25200;53.394;10.414;2023-05-10T13:29:07;9.02;;;5.80;;
39518;SDS011;25200;53.394;10.414;2023-05-10T13:31:34;7.75;;;5.05;;
39518;SDS011;25200;53.394;10.414;2023-05-10T13:34:00;7.65;;;4.85;;
39518;SDS011;25200;53.394;10.414;2023-05-10T13:36:25;6.80;;;4.30;;
39518;SDS011;25200;53.394;10.414;2023-05-10T13:38:51;7.00;;;4.00;;
39518;SDS011;25200;53.394;10.414;2023-05-10T13:41:16;7.40;;;4.10;;
39518;SDS011;25200;53.394;10.414;2023-05-10T13:43:42;6.57;;;3.53;;
39518;SDS011;25200;53.394;10.414;2023-05-10T13:46:08;6.75;;;3.90;;
39518;SDS011;25200;53.394;10.414;2023-05-10T13:48:33;7.18;;;4.63;;
39518;SDS011;25200;53.394;10.414;2023-05-10T13:50:59;7.25;;;4.13;;
39518;SDS011;25200;53.394;10.414;2023-05-10T13:53:24;7.43;;;4.40;;
39518;SDS011;25200;53.394;10.414;2023-05-10T13:55:50;8.68;;;4.78;;
39518;SDS011;25200;53.394;10.414;2023-05-10T13:58:16;6.38;;;4.00;;
39518;SDS011;25200;53.394;10.414;2023-05-10T14:00:41;6.40;;;4.28;;
39518;SDS011;25200;53.394;10.414;2023-05-10T14:03:07;8.48;;;4.43;;
39518;SDS011;25200;53.394;10.414;2023-05-10T14:05:35;6.28;;;4.35;;
39518;SDS011;25200;53.394;10.414;2023-05-10T14:08:01;7.05;;;4.07;;
39518;SDS011;25200;53.394;10.414;2023-05-10T14:10:28;6.80;;;4.13;;
39518;SDS011;25200;53.394;10.414;2023-05-10T14:12:54;7.45;;;4.28;;
39518;SDS011;25200;53.394;10.414;2023-05-10T14:15:20;6.93;;;4.40;;
39518;SDS011;25200;53.394;10.414;2023-05-10T14:17:46;6.65;;;4.10;;
39518;SDS011;25200;53.394;10.414;2023-05-10T14:20:11;8.88;;;3.78;;
39518;SDS011;25200;53.394;10.414;2023-05-10T14:22:37;6.90;;;4.45;;
39518;SDS011;25200;53.394;10.414;2023-05-10T14:25:03;5.97;;;3.95;;
39518;SDS011;25200;53.394;10.414;2023-05-10T14:27:29;6.40;;;4.22;;
39518;SDS011;25200;53.394;10.414;2023-05-10T14:29:55;6.32;;;4.00;;
39518;SDS011;25200;53.394;10.414;2023-05-10T14:32:21;6.28;;;3.67;;
39518;SDS011;25200;53.394;10.414;2023-05-10T14:34:46;6.55;;;4.10;;
39518;SDS011;25200;53.394;10.414;2023-05-10T14:37:12;6.30;;;4.03;;
39518;SDS011;25200;53.394;10.414;2023-05-10T14:39:39;6.20;;;3.97;;
39518;SDS011;25200;53.394;10.414;2023-05-10T14:42:05;6.18;;;4.03;;
39518;SDS011;25200;53.394;10.414;2023-05-10T14:44:30;6.47;;;3.92;;
39518;SDS011;25200;53.394;10.414;2023-05-10T14:46:56;6.95;;;3.92;;
39518;SDS011;25200;53.394;10.414;2023-05-10T14:49:22;5.53;;;3.67;;
39518;SDS011;25200;53.394;10.414;2023-05-10T14:51:49;5.40;;;3.50;;
39518;SDS011;25200;53.394;10.414;2023-05-10T14:54:15;6.28;;;3.42;;
39518;SDS011;25200;53.394;10.414;2023-05-10T14:56:40;5.97;;;3.58;;
39518;SDS011;25200;53.394;10.414;2023-05-10T14:59:07;5.40;;;3.22;;
39518;SDS011;25200;53.394;10.414;2023-05-10T15:01:33;5.88;;;3.67;;
39518;SDS011;25200;53.394;10.414;2023-05-10T15:04:02;6.97;;;4.00;;
39518;SDS011;25200;53.394;10.414;2023-05-10T15:06:31;5.75;;;3.90;;
39518;SDS011;25200;53.394;10.414;2023-05-10T15:09:00;5.57;;;3.72;;
39518;SDS011;25200;53.394;10.414;2023-05-10T15:11:27;7.65;;;3.88;;
39518;SDS011;25200;53.394;10.414;2023-05-10T15:13:53;6.63;;;4.25;;
39518;SDS011;25200;53.394;10.414;2023-05-10T15:16:19;5.95;;;3.38;;
39518;SDS011;25200;53.394;10.414;2023-05-10T15:18:45;6.90;;;3.83;;
39518;SDS011;25200;53.394;10.414;2023-05-10T15:21:11;6.05;;;3.72;;
39518;SDS011;25200;53.394;10.414;2023-05-10T15:23:37;5.13;;;3.33;;
39518;SDS011;25200;53.394;10.414;2023-05-10T15:26:02;5.65;;;3.40;;